Watertown International Airport
KART : now visible

Airfield :











YOU CAN JOIN US ON...

 
LOGIN :

Register | Disclaimer

   EN    FR    IT 

 









Legend :    VFR   Marginal VFR   IFR   Intensive IFR   Very Intensive IFR
Visi :
Ceiling :
>= 8 km
>= 3000ft
5 to 8 km
1000 to 3000 ft
1500m to 5 km
500 to 1000 ft
800 to 1500m
200 to 500 ft
< 800m
< 200 ft
Symbols :   Thunderstorms  Fog  Heavy snow  Heavy precipitations  Wind > 20 kt






- Airport Elevation : 325 ft
- IATA code : ART


KART - Watertown International

CURRENT METAR :
  • 162056Z AUTO 22004KT 10SM CLR 25/16 A3004 RMK AO2 SLP170 T02500156 58003

EXPIRED METARs :
  • 161956Z AUTO 17009KT 10SM OVC065 25/14 A3006 RMK AO2 LTG DSNT E SLP175 T02500144
  • 161856Z AUTO 06007KT 10SM FEW070 28/12 A3005 RMK AO2 LTG DSNT S SLP172 T02780117

TAF KART
Valid from the 16 at 21:00 until the 17 at 18:00 UTC


162103Z 1621/1718 22004KT P6SM SCT100
FM170000 04005KT P6SM BKN100
KZBW FIR / North America



MET'MAP, your aeronautical weather chart ! - Copyright ORBIFLY December 2007 - Disclaimer

ORBIFLY MET'MAP TEAM :

Programming & Development : Alexandra Zaïnal
Original concept : Baudouin d'Aumeries
Technical & hardware support : Manuel Goepfert
Assistance : Marc-Olivier Méhu




SOURCES & CREDITS :

   NOAA       Earth
Advisory